createdAt,value
2023-01-25T00:01:43.453Z,102508.81
2023-01-25T00:03:46.594Z,102515.03
2023-01-25T00:05:49.387Z,102508.31
2023-01-25T00:07:52.320Z,102507.19
2023-01-25T00:09:55.141Z,102509.19
2023-01-25T00:11:58.218Z,102512.16
2023-01-25T00:14:02.392Z,102511.81
2023-01-25T00:16:06.246Z,102507.47
2023-01-25T00:18:09.153Z,102505.44
2023-01-25T00:20:12.363Z,102501.13
2023-01-25T00:22:15.148Z,102493.53
2023-01-25T00:24:18.126Z,102489.22
2023-01-25T00:26:21.162Z,102483.22
2023-01-25T00:28:23.963Z,102485.09
2023-01-25T00:30:28.192Z,102483.88
2023-01-25T00:32:39.204Z,102485.88
2023-01-25T00:34:47.647Z,102492.06
2023-01-25T00:36:51.323Z,102483.22
2023-01-25T00:38:54.708Z,102490.19
2023-01-25T00:40:59.019Z,102485.28
2023-01-25T00:43:01.876Z,102478.63
2023-01-25T00:45:05.893Z,102475.19
2023-01-25T00:47:10.605Z,102472.75
2023-01-25T00:49:22.174Z,102474.03
2023-01-25T00:51:25.518Z,102475.81
2023-01-25T00:53:28.772Z,102470.06
2023-01-25T00:55:31.618Z,102464.69
2023-01-25T00:57:34.599Z,102457.66
2023-01-25T00:59:37.615Z,102463.94
2023-01-25T01:01:41.675Z,102461.97
2023-01-25T01:03:46.166Z,102463.34
2023-01-25T01:05:49.672Z,102462.94
2023-01-25T01:07:52.576Z,102464.09
2023-01-25T01:09:55.639Z,102462.53
2023-01-25T01:12:00.823Z,102462.22
2023-01-25T01:14:03.748Z,102455.78
2023-01-25T01:16:11.771Z,102461.31
2023-01-25T01:18:14.607Z,102450.28
2023-01-25T01:20:18.987Z,102453.88
2023-01-25T01:22:21.762Z,102451.19
2023-01-25T01:24:24.633Z,102461.53
2023-01-25T01:26:27.512Z,102462.16
2023-01-25T01:28:30.537Z,102462.81
2023-01-25T01:30:33.584Z,102474.50
2023-01-25T01:32:36.584Z,102472.56
2023-01-25T01:34:39.804Z,102470.75
2023-01-25T01:36:44.511Z,102472.38
2023-01-25T01:38:48.169Z,102467.25
2023-01-25T01:40:51.789Z,102474.69
2023-01-25T01:42:58.991Z,102476.41
2023-01-25T01:45:01.886Z,102467.06
2023-01-25T01:47:04.863Z,102469.84
2023-01-25T01:49:13.861Z,102474.31
2023-01-25T01:51:20.817Z,102470.16
2023-01-25T01:53:26.475Z,102471.22
2023-01-25T01:55:30.268Z,102463.13
2023-01-25T01:57:36.426Z,102465.13
2023-01-25T01:59:45.878Z,102456.69
2023-01-25T02:01:48.744Z,102460.97
2023-01-25T02:03:51.975Z,102462.84
2023-01-25T02:05:57.826Z,102454.88
2023-01-25T02:08:02.120Z,102461.97
2023-01-25T02:10:08.292Z,102458.72
2023-01-25T02:12:11.840Z,102457.75
2023-01-25T02:14:16.182Z,102461.97
2023-01-25T02:16:22.613Z,102451.47
2023-01-25T02:18:26.276Z,102459.06
2023-01-25T02:20:35.452Z,102453.81
2023-01-25T02:22:55.673Z,102461.38
2023-01-25T02:25:07.039Z,102466.09
2023-01-25T02:27:10.240Z,102467.84
2023-01-25T02:29:14.023Z,102458.44
2023-01-25T02:31:17.001Z,102461.38
2023-01-25T02:33:19.982Z,102459.69
2023-01-25T02:35:24.956Z,102468.78
2023-01-25T02:37:27.916Z,102455.84
2023-01-25T02:39:31.422Z,102467.94
2023-01-25T02:41:37.063Z,102466.72
2023-01-25T02:43:40.223Z,102468.91
2023-01-25T02:45:45.499Z,102469.19
2023-01-25T02:47:48.700Z,102467.72
2023-01-25T02:49:51.598Z,102464.38
2023-01-25T02:51:57.395Z,102462.66
2023-01-25T02:54:01.214Z,102457.41
2023-01-25T02:56:04.600Z,102449.97
2023-01-25T02:58:08.900Z,102451.16
2023-01-25T03:00:12.707Z,102459.31
2023-01-25T03:02:15.541Z,102459.47
2023-01-25T03:04:19.367Z,102457.84
2023-01-25T03:06:23.533Z,102456.47
2023-01-25T03:08:26.788Z,102452.97
2023-01-25T03:10:30.293Z,102443.63
2023-01-25T03:12:34.070Z,102442.94
2023-01-25T03:14:38.309Z,102444.56
2023-01-25T03:16:42.098Z,102458.66
2023-01-25T03:18:45.363Z,102454.31
2023-01-25T03:20:48.601Z,102445.97
2023-01-25T03:22:51.476Z,102445.00
2023-01-25T03:24:54.376Z,102436.66
2023-01-25T03:27:14.193Z,102441.22
2023-01-25T03:29:20.782Z,102442.91
2023-01-25T03:31:26.921Z,102440.19
2023-01-25T03:33:30.199Z,102432.94
2023-01-25T03:35:34.027Z,102431.28
2023-01-25T03:37:36.974Z,102431.38
2023-01-25T03:39:41.800Z,102425.63
2023-01-25T03:41:45.341Z,102420.63
2023-01-25T03:43:49.719Z,102413.03
2023-01-25T03:45:54.733Z,102412.34
2023-01-25T03:47:58.935Z,102414.16
2023-01-25T03:50:01.775Z,102406.44
2023-01-25T03:52:04.930Z,102403.06
2023-01-25T03:54:12.649Z,102393.56
2023-01-25T03:56:19.888Z,102386.78
2023-01-25T03:58:32.818Z,102385.09
2023-01-25T04:00:35.715Z,102386.06
2023-01-25T04:02:38.650Z,102384.75
2023-01-25T04:04:44.896Z,102373.66
2023-01-25T04:06:48.922Z,102376.34
2023-01-25T04:08:51.926Z,102379.00
2023-01-25T04:10:57.510Z,102377.84
2023-01-25T04:13:00.512Z,102369.50
2023-01-25T04:15:03.498Z,102367.88
2023-01-25T04:17:08.331Z,102365.44
2023-01-25T04:19:47.688Z,102364.31
2023-01-25T04:21:53.905Z,102368.84
2023-01-25T04:23:56.883Z,102369.53
2023-01-25T04:26:01.319Z,102367.25
2023-01-25T04:28:04.559Z,102366.59
2023-01-25T04:30:08.650Z,102351.22
2023-01-25T04:32:12.986Z,102355.56
2023-01-25T04:34:15.998Z,102356.13
2023-01-25T04:36:20.511Z,102362.44
2023-01-25T04:38:24.165Z,102352.28
2023-01-25T04:40:27.856Z,102350.06
2023-01-25T04:42:31.598Z,102345.94
2023-01-25T04:44:35.319Z,102348.94
2023-01-25T04:46:38.303Z,102348.19
2023-01-25T04:48:42.626Z,102353.41
2023-01-25T04:50:46.915Z,102350.09
2023-01-25T04:52:51.858Z,102358.44
2023-01-25T04:54:55.463Z,102341.78
2023-01-25T04:56:58.600Z,102341.91
2023-01-25T04:59:01.618Z,102343.69
2023-01-25T05:01:05.520Z,102343.69
2023-01-25T05:03:08.648Z,102344.91
2023-01-25T05:05:11.955Z,102344.63
2023-01-25T05:07:15.032Z,102343.97
2023-01-25T05:09:19.654Z,102341.97
2023-01-25T05:11:23.146Z,102338.06
2023-01-25T05:13:39.088Z,102343.63
2023-01-25T05:15:53.457Z,102341.38
2023-01-25T05:17:56.669Z,102347.41
2023-01-25T05:20:00.461Z,102348.09
2023-01-25T05:22:07.495Z,102349.31
2023-01-25T05:24:17.246Z,102347.38
2023-01-25T05:26:38.869Z,102347.38
2023-01-25T05:28:43.151Z,102359.00
2023-01-25T05:30:56.590Z,102346.69
2023-01-25T05:33:03.314Z,102342.94
2023-01-25T05:35:07.740Z,102342.13
2023-01-25T05:37:12.427Z,102344.94
2023-01-25T05:39:18.347Z,102347.59
2023-01-25T05:41:25.105Z,102345.31
2023-01-25T05:43:28.745Z,102344.31
2023-01-25T05:45:32.163Z,102349.84
2023-01-25T05:47:35.082Z,102350.38
2023-01-25T05:49:39.163Z,102344.31
2023-01-25T05:51:45.268Z,102344.91
2023-01-25T05:53:48.231Z,102339.94
2023-01-25T05:55:51.131Z,102337.78
2023-01-25T05:57:57.923Z,102349.44
2023-01-25T06:00:00.879Z,102344.28
2023-01-25T06:02:04.707Z,102345.44
2023-01-25T06:04:08.346Z,102343.03
2023-01-25T06:06:11.569Z,102340.19
2023-01-25T06:08:14.455Z,102333.38
2023-01-25T06:10:24.171Z,102331.75
2023-01-25T06:12:29.432Z,102335.69
2023-01-25T06:14:34.788Z,102333.63
2023-01-25T06:16:39.129Z,102324.31
2023-01-25T06:19:02.126Z,102324.13
2023-01-25T06:21:14.012Z,102327.66
2023-01-25T06:23:16.984Z,102329.91
2023-01-25T06:25:20.021Z,102324.63
2023-01-25T06:27:22.821Z,102329.81
2023-01-25T06:29:25.993Z,102329.28
2023-01-25T06:31:30.356Z,102333.53
2023-01-25T06:33:33.319Z,102333.09
2023-01-25T06:35:36.752Z,102329.88
2023-01-25T06:37:39.579Z,102331.06
2023-01-25T06:39:42.423Z,102331.25
2023-01-25T06:41:45.251Z,102334.97
2023-01-25T06:43:48.857Z,102340.25
2023-01-25T06:45:51.744Z,102335.16
2023-01-25T06:47:55.962Z,102341.38
2023-01-25T06:49:58.868Z,102343.25
2023-01-25T06:52:01.982Z,102337.47
2023-01-25T06:54:05.322Z,102330.75
2023-01-25T06:56:11.778Z,102325.66
2023-01-25T06:58:14.887Z,102331.50
2023-01-25T07:00:19.245Z,102331.13
2023-01-25T07:02:22.464Z,102329.50
2023-01-25T07:04:26.755Z,102329.03
2023-01-25T07:06:33.567Z,102329.72
2023-01-25T07:08:36.947Z,102329.63
2023-01-25T07:10:39.793Z,102332.31
2023-01-25T07:12:42.687Z,102327.06
2023-01-25T07:14:47.398Z,102336.34
2023-01-25T07:16:50.247Z,102343.19
2023-01-25T07:18:53.700Z,102334.78
2023-01-25T07:21:04.044Z,102327.16
2023-01-25T07:23:06.827Z,102330.75
2023-01-25T07:25:10.913Z,102323.44
2023-01-25T07:27:14.005Z,102328.81
2023-01-25T07:29:17.599Z,102320.63
2023-01-25T07:31:21.216Z,102317.31
2023-01-25T07:33:24.163Z,102318.41
2023-01-25T07:35:27.067Z,102317.59
2023-01-25T07:37:31.328Z,102316.63
2023-01-25T07:39:34.841Z,102316.06
2023-01-25T07:41:37.673Z,102312.78
2023-01-25T07:43:40.778Z,102312.09
2023-01-25T07:45:48.718Z,102307.78
2023-01-25T07:47:51.546Z,102309.53
2023-01-25T07:49:54.961Z,102305.78
2023-01-25T07:51:57.838Z,102310.25
2023-01-25T07:54:03.749Z,102302.56
2023-01-25T07:56:07.416Z,102306.72
2023-01-25T07:58:11.922Z,102306.66
2023-01-25T08:00:15.735Z,102297.25
2023-01-25T08:02:18.621Z,102306.06
2023-01-25T08:04:21.461Z,102313.09
2023-01-25T08:06:27.319Z,102304.13
2023-01-25T08:08:30.340Z,102311.69
2023-01-25T08:10:34.543Z,102303.59
2023-01-25T08:12:38.027Z,102309.28
2023-01-25T08:14:40.889Z,102305.09
2023-01-25T08:16:43.815Z,102313.31
2023-01-25T08:18:48.480Z,102301.00
2023-01-25T08:20:51.340Z,102302.94
2023-01-25T08:22:54.247Z,102294.25
2023-01-25T08:24:57.564Z,102296.78
2023-01-25T08:27:01.786Z,102303.66
2023-01-25T08:29:05.080Z,102302.38
2023-01-25T08:31:09.150Z,102300.63
2023-01-25T08:33:12.004Z,102296.28
2023-01-25T08:35:15.159Z,102296.75
2023-01-25T08:37:18.138Z,102294.84
2023-01-25T08:39:20.985Z,102289.00
2023-01-25T08:41:24.436Z,102284.03
2023-01-25T08:43:28.654Z,102286.44
2023-01-25T08:45:34.595Z,102295.91
2023-01-25T08:47:37.618Z,102290.09
2023-01-25T08:49:40.448Z,102294.78
2023-01-25T08:51:43.484Z,102289.34
2023-01-25T08:53:46.339Z,102283.31
2023-01-25T08:55:49.352Z,102287.94
2023-01-25T08:57:52.242Z,102292.50
2023-01-25T08:59:56.438Z,102291.25
2023-01-25T09:01:59.266Z,102285.13
2023-01-25T09:04:03.373Z,102289.88
2023-01-25T09:06:06.864Z,102288.50
2023-01-25T09:08:11.192Z,102278.44
2023-01-25T09:10:14.078Z,102270.31
2023-01-25T09:12:16.892Z,102266.31
2023-01-25T09:14:19.820Z,102265.63
2023-01-25T09:16:29.425Z,102270.13
2023-01-25T09:18:33.241Z,102260.72
2023-01-25T09:20:36.128Z,102268.50
2023-01-25T09:22:40.602Z,102251.13
2023-01-25T09:24:43.561Z,102250.03
2023-01-25T09:26:55.889Z,102249.16
2023-01-25T09:29:02.123Z,102248.19
2023-01-25T09:31:21.210Z,102249.91
2023-01-25T09:33:47.357Z,102247.41
2023-01-25T09:35:50.532Z,102242.75
2023-01-25T09:37:53.467Z,102237.53
2023-01-25T09:39:56.302Z,102240.84
2023-01-25T09:42:37.735Z,102246.06
2023-01-25T09:44:50.342Z,102241.84
2023-01-25T09:46:55.396Z,102243.44
2023-01-25T09:50:03.237Z,102237.19
2023-01-25T09:51:38.331Z,102241.53
2023-01-25T09:53:42.609Z,102242.41
2023-01-25T09:55:45.548Z,102240.22
2023-01-25T09:57:50.936Z,102239.38
2023-01-25T09:59:55.197Z,102230.81
2023-01-25T10:02:01.684Z,102225.84
2023-01-25T10:04:12.014Z,102228.56
2023-01-25T10:06:15.604Z,102228.44
2023-01-25T10:08:25.875Z,102220.03
2023-01-25T10:10:33.976Z,102218.56
2023-01-25T10:12:38.926Z,102217.91
2023-01-25T10:14:41.796Z,102215.94
2023-01-25T10:16:52.631Z,102219.53
2023-01-25T10:19:02.648Z,102219.81
2023-01-25T10:21:10.975Z,102215.59
2023-01-25T10:23:29.191Z,102207.97
2023-01-25T10:25:37.051Z,102215.84
2023-01-25T10:27:43.026Z,102220.13
2023-01-25T10:29:46.231Z,102213.53
2023-01-25T10:31:51.516Z,102204.63
2023-01-25T10:33:55.792Z,102207.88
2023-01-25T10:36:00.131Z,102204.25
2023-01-25T10:38:06.720Z,102197.44
2023-01-25T10:40:17.014Z,102196.78
2023-01-25T10:42:20.256Z,102199.31
2023-01-25T10:44:24.573Z,102190.38
2023-01-25T10:46:27.880Z,102192.50
2023-01-25T10:48:34.057Z,102182.47
2023-01-25T10:50:57.829Z,102180.13
2023-01-25T10:53:00.825Z,102172.59
2023-01-25T10:55:16.233Z,102178.53
2023-01-25T10:57:20.595Z,102173.06
2023-01-25T10:59:26.163Z,102170.84
2023-01-25T11:01:32.946Z,102169.84
2023-01-25T11:03:38.291Z,102167.63
2023-01-25T11:05:41.895Z,102154.13
2023-01-25T11:07:44.802Z,102156.84
2023-01-25T11:09:47.804Z,102152.63
2023-01-25T11:11:56.900Z,102147.97
2023-01-25T11:14:00.040Z,102150.91
2023-01-25T11:16:19.625Z,102152.41
2023-01-25T11:18:25.218Z,102145.78
2023-01-25T11:20:28.216Z,102146.22
2023-01-25T11:22:31.125Z,102144.47
2023-01-25T11:24:35.467Z,102131.94
2023-01-25T11:26:40.073Z,102126.91
2023-01-25T11:28:45.605Z,102119.09
2023-01-25T11:30:49.158Z,102118.25
2023-01-25T11:32:52.059Z,102108.75
2023-01-25T11:34:56.080Z,102103.69
2023-01-25T11:37:12.708Z,102100.94
2023-01-25T11:39:25.876Z,102103.69
2023-01-25T11:41:36.261Z,102095.13
2023-01-25T11:43:51.361Z,102094.34
2023-01-25T11:46:17.857Z,102084.44
2023-01-25T11:48:34.648Z,102077.03
2023-01-25T11:50:39.759Z,102069.47
2023-01-25T11:52:57.708Z,102063.84
2023-01-25T11:55:08.304Z,102058.75
2023-01-25T11:57:22.110Z,102056.06
2023-01-25T11:59:38.835Z,102042.34
2023-01-25T12:01:52.669Z,102042.47
2023-01-25T12:04:26.652Z,102039.88
2023-01-25T12:06:36.843Z,102039.97
2023-01-25T12:08:50.503Z,102034.28
2023-01-25T12:10:57.982Z,102025.94
2023-01-25T12:13:04.566Z,102016.50
2023-01-25T12:15:23.710Z,102011.44
2023-01-25T12:17:37.903Z,102008.97
2023-01-25T12:19:52.919Z,102000.41
2023-01-25T12:22:09.424Z,101995.22
2023-01-25T12:24:24.214Z,101991.94
2023-01-25T12:26:29.605Z,101990.97
2023-01-25T12:28:36.028Z,101988.50
2023-01-25T12:30:46.329Z,101983.44
2023-01-25T12:32:53.881Z,101967.78
2023-01-25T12:35:14.440Z,101970.38
2023-01-25T12:37:19.935Z,101962.19
2023-01-25T12:39:25.514Z,101963.19
2023-01-25T12:41:33.235Z,101956.47
2023-01-25T12:43:40.056Z,101945.25
2023-01-25T12:45:46.731Z,101938.25
2023-01-25T12:47:53.674Z,101935.72
2023-01-25T12:49:59.681Z,101928.75
2023-01-25T12:52:06.802Z,101926.66
2023-01-25T12:54:17.834Z,101914.22
2023-01-25T12:56:30.136Z,101905.75
2023-01-25T12:58:40.196Z,101909.75
2023-01-25T13:00:48.954Z,101903.06
2023-01-25T13:03:00.501Z,101894.84
2023-01-25T13:05:11.095Z,101889.53
2023-01-25T13:07:18.035Z,101886.13
2023-01-25T13:09:27.147Z,101877.25
2023-01-25T13:11:34.747Z,101878.28
2023-01-25T13:13:37.706Z,101866.81
2023-01-25T13:15:42.125Z,101867.53
2023-01-25T13:17:46.437Z,101866.22
2023-01-25T13:19:50.049Z,101856.88
2023-01-25T13:21:56.587Z,101847.31
2023-01-25T13:24:22.248Z,101854.41
2023-01-25T13:27:02.315Z,101861.72
2023-01-25T13:29:05.261Z,101855.97
2023-01-25T13:31:08.173Z,101846.28
2023-01-25T13:33:36.229Z,101845.91
2023-01-25T13:35:44.997Z,101846.94
2023-01-25T13:37:58.686Z,101844.25
2023-01-25T13:40:10.165Z,101845.91
2023-01-25T13:42:23.943Z,101839.25
2023-01-25T13:44:29.291Z,101835.13
2023-01-25T13:46:32.241Z,101833.44
2023-01-25T13:48:38.321Z,101836.56
2023-01-25T13:50:52.909Z,101831.25
2023-01-25T13:52:59.093Z,101826.31
2023-01-25T13:55:02.184Z,101832.31
2023-01-25T13:57:05.734Z,101833.06
2023-01-25T13:59:23.127Z,101837.84
2023-01-25T14:01:27.110Z,101842.41
2023-01-25T14:03:31.614Z,101833.38
2023-01-25T14:05:35.861Z,101832.28
2023-01-25T14:07:38.909Z,101820.75
2023-01-25T14:09:43.390Z,101820.19
2023-01-25T14:11:47.675Z,101814.25
2023-01-25T14:14:01.191Z,101815.28
2023-01-25T14:16:04.795Z,101812.88
2023-01-25T14:18:16.392Z,101808.63
2023-01-25T14:20:21.490Z,101811.16
2023-01-25T14:22:27.436Z,101804.50
2023-01-25T14:24:30.681Z,101814.22
2023-01-25T14:26:34.082Z,101817.97
2023-01-25T14:28:36.935Z,101807.09
2023-01-25T14:30:40.206Z,101807.31
2023-01-25T14:32:43.446Z,101809.06
2023-01-25T14:34:46.393Z,101805.69
2023-01-25T14:36:49.274Z,101804.69
2023-01-25T14:38:53.711Z,101796.19
2023-01-25T14:40:59.398Z,101791.94
2023-01-25T14:43:03.217Z,101798.91
2023-01-25T14:45:07.036Z,101792.84
2023-01-25T14:47:31.638Z,101787.78
2023-01-25T14:49:34.599Z,101791.00
2023-01-25T14:51:42.022Z,101793.47
2023-01-25T14:53:47.585Z,101786.38
2023-01-25T14:55:52.119Z,101788.47
2023-01-25T14:58:00.122Z,101791.94
2023-01-25T15:00:06.098Z,101788.19
2023-01-25T15:02:26.562Z,101783.84
2023-01-25T15:04:29.798Z,101776.25
2023-01-25T15:06:32.717Z,101770.38
2023-01-25T15:08:38.615Z,101769.63
2023-01-25T15:10:53.124Z,101767.91
2023-01-25T15:13:12.801Z,101770.56
2023-01-25T15:15:20.601Z,101768.94
2023-01-25T15:17:44.177Z,101757.59
2023-01-25T15:19:53.357Z,101757.50
2023-01-25T15:21:57.760Z,101754.75
2023-01-25T15:24:04.758Z,101754.22
2023-01-25T15:26:16.126Z,101753.41
2023-01-25T15:28:19.034Z,101749.69
2023-01-25T15:30:22.284Z,101744.69
2023-01-25T15:32:25.286Z,101744.25
2023-01-25T15:34:30.437Z,101733.91
2023-01-25T15:36:34.299Z,101731.53
2023-01-25T15:38:37.626Z,101729.13
2023-01-25T15:40:40.477Z,101730.94
2023-01-25T15:42:44.794Z,101727.50
2023-01-25T15:44:47.624Z,101729.25
2023-01-25T15:46:52.359Z,101725.94
2023-01-25T15:48:55.617Z,101727.78
2023-01-25T15:50:58.867Z,101728.69
2023-01-25T15:53:01.704Z,101720.88
2023-01-25T15:55:05.003Z,101715.19
2023-01-25T15:57:09.761Z,101721.84
2023-01-25T15:59:18.842Z,101717.75
2023-01-25T16:01:22.575Z,101718.75
2023-01-25T16:03:25.568Z,101714.50
2023-01-25T16:05:29.320Z,101716.41
2023-01-25T16:07:32.701Z,101719.53
2023-01-25T16:09:35.579Z,101716.28
2023-01-25T16:11:38.477Z,101717.13
2023-01-25T16:13:42.706Z,101712.47
2023-01-25T16:15:50.305Z,101712.22
2023-01-25T16:17:53.472Z,101712.13
2023-01-25T16:19:56.421Z,101719.19
2023-01-25T16:21:59.487Z,101712.09
2023-01-25T16:24:02.464Z,101711.06
2023-01-25T16:26:05.994Z,101710.25
2023-01-25T16:28:11.117Z,101699.94
2023-01-25T16:30:19.376Z,101710.22
2023-01-25T16:32:23.645Z,101715.25
2023-01-25T16:34:26.612Z,101706.63
2023-01-25T16:36:30.414Z,101706.91
2023-01-25T16:38:33.237Z,101711.00
2023-01-25T16:40:39.580Z,101705.06
2023-01-25T16:42:42.433Z,101701.53
2023-01-25T16:44:45.408Z,101702.44
2023-01-25T16:46:50.342Z,101706.38
2023-01-25T16:48:54.747Z,101699.59
2023-01-25T16:50:58.622Z,101701.47
2023-01-25T16:53:01.778Z,101701.56
2023-01-25T16:55:05.187Z,101697.59
2023-01-25T16:57:19.823Z,101697.66
2023-01-25T16:59:25.900Z,101692.63
2023-01-25T17:01:29.145Z,101685.75
2023-01-25T17:03:32.023Z,101680.50
2023-01-25T17:05:39.399Z,101683.31
2023-01-25T17:07:42.635Z,101679.78
2023-01-25T17:09:45.455Z,101681.69
2023-01-25T17:11:48.402Z,101676.56
2023-01-25T17:13:52.056Z,101684.38
2023-01-25T17:15:57.139Z,101673.94
2023-01-25T17:18:00.056Z,101671.38
2023-01-25T17:20:03.776Z,101672.19
2023-01-25T17:22:08.099Z,101667.97
2023-01-25T17:24:13.748Z,101671.53
2023-01-25T17:26:18.033Z,101672.47
2023-01-25T17:28:20.908Z,101672.34
2023-01-25T17:30:23.818Z,101668.91
2023-01-25T17:32:27.231Z,101664.69
2023-01-25T17:34:30.276Z,101657.69
2023-01-25T17:36:33.176Z,101656.91
2023-01-25T17:38:37.632Z,101652.47
2023-01-25T17:40:40.946Z,101652.59
2023-01-25T17:42:43.785Z,101652.59
2023-01-25T17:44:46.688Z,101648.28
2023-01-25T17:46:50.077Z,101643.88
2023-01-25T17:48:53.278Z,101647.41
2023-01-25T17:51:02.737Z,101650.06
2023-01-25T17:53:06.517Z,101651.72
2023-01-25T17:55:14.047Z,101649.09
2023-01-25T17:57:19.166Z,101653.50
2023-01-25T17:59:22.172Z,101651.81
2023-01-25T18:01:27.129Z,101658.66
2023-01-25T18:03:30.099Z,101662.94
2023-01-25T18:05:33.004Z,101661.16
2023-01-25T18:07:35.903Z,101656.84
2023-01-25T18:09:38.792Z,101653.31
2023-01-25T18:11:43.060Z,101658.59
2023-01-25T18:13:47.394Z,101652.81
2023-01-25T18:15:55.621Z,101657.97
2023-01-25T18:17:58.534Z,101652.06
2023-01-25T18:20:01.408Z,101648.63
2023-01-25T18:22:04.849Z,101645.94
2023-01-25T18:24:24.879Z,101643.22
2023-01-25T18:26:29.841Z,101638.19
2023-01-25T18:28:34.498Z,101635.72
2023-01-25T18:30:40.330Z,101635.16
2023-01-25T18:32:43.298Z,101632.34
2023-01-25T18:34:48.144Z,101641.72
2023-01-25T18:36:52.168Z,101635.84
2023-01-25T18:38:55.156Z,101629.16
2023-01-25T18:40:58.364Z,101619.00
2023-01-25T18:43:01.538Z,101620.59
2023-01-25T18:45:07.363Z,101616.63
2023-01-25T18:47:13.896Z,101617.59
2023-01-25T18:49:16.988Z,101620.13
2023-01-25T18:51:19.964Z,101605.41
2023-01-25T18:53:22.935Z,101607.16
2023-01-25T18:55:27.670Z,101603.53
2023-01-25T18:57:30.539Z,101595.03
2023-01-25T18:59:33.467Z,101603.25
2023-01-25T19:01:37.720Z,101598.19
2023-01-25T19:03:41.045Z,101601.59
2023-01-25T19:05:43.929Z,101603.47
2023-01-25T19:07:46.968Z,101588.53
2023-01-25T19:09:50.107Z,101582.47
2023-01-25T19:11:53.336Z,101581.00
2023-01-25T19:13:58.162Z,101582.88
2023-01-25T19:16:02.615Z,101578.50
2023-01-25T19:18:07.015Z,101573.50
2023-01-25T19:20:11.416Z,101569.75
2023-01-25T19:22:14.521Z,101575.31
2023-01-25T19:24:19.677Z,101572.63
2023-01-25T19:26:24.430Z,101567.59
2023-01-25T19:28:27.476Z,101563.25
2023-01-25T19:30:31.681Z,101553.81
2023-01-25T19:32:34.775Z,101551.97
2023-01-25T19:34:39.119Z,101564.94
2023-01-25T19:36:47.280Z,101557.81
2023-01-25T19:38:51.111Z,101542.31
2023-01-25T19:40:54.019Z,101537.34
2023-01-25T19:42:56.953Z,101534.53
2023-01-25T19:45:03.030Z,101533.78
2023-01-25T19:47:06.094Z,101526.00
2023-01-25T19:49:10.983Z,101520.09
2023-01-25T19:51:16.407Z,101511.63
2023-01-25T19:53:19.336Z,101509.69
2023-01-25T19:55:22.221Z,101516.81
2023-01-25T19:57:25.113Z,101513.31
2023-01-25T19:59:29.029Z,101504.00
2023-01-25T20:01:32.348Z,101502.69
2023-01-25T20:03:35.902Z,101501.84
2023-01-25T20:05:39.236Z,101490.75
2023-01-25T20:07:43.515Z,101486.50
2023-01-25T20:09:46.425Z,101488.94
2023-01-25T20:11:50.615Z,101495.84
2023-01-25T20:13:55.995Z,101489.56
2023-01-25T20:15:59.073Z,101489.72
2023-01-25T20:18:01.995Z,101488.59
2023-01-25T20:20:05.730Z,101493.66
2023-01-25T20:22:08.720Z,101493.56
2023-01-25T20:24:13.060Z,101493.13
2023-01-25T20:26:17.752Z,101494.00
2023-01-25T20:28:20.624Z,101497.44
2023-01-25T20:30:23.650Z,101499.09
2023-01-25T20:32:32.693Z,101502.66
2023-01-25T20:34:36.078Z,101493.94
2023-01-25T20:36:39.050Z,101507.66
2023-01-25T20:38:42.019Z,101502.13
2023-01-25T20:40:46.262Z,101490.34
2023-01-25T20:42:49.068Z,101487.59
2023-01-25T20:44:51.966Z,101488.59
2023-01-25T20:46:55.760Z,101486.13
2023-01-25T20:48:58.851Z,101487.06
2023-01-25T20:51:02.326Z,101494.31
2023-01-25T20:53:05.507Z,101495.09
2023-01-25T20:55:09.780Z,101481.47
2023-01-25T20:57:14.311Z,101499.63
2023-01-25T20:59:19.125Z,101488.63
2023-01-25T21:01:23.619Z,101496.53
2023-01-25T21:03:29.109Z,101490.41
2023-01-25T21:05:32.837Z,101486.19
2023-01-25T21:07:35.677Z,101488.75
2023-01-25T21:09:38.697Z,101491.75
2023-01-25T21:11:41.896Z,101490.06
2023-01-25T21:13:46.347Z,101480.00
2023-01-25T21:15:59.594Z,101475.81
2023-01-25T21:18:02.502Z,101475.03
2023-01-25T21:20:06.463Z,101469.53
2023-01-25T21:22:09.322Z,101458.66
2023-01-25T21:24:12.301Z,101454.47
2023-01-25T21:26:17.420Z,101454.59
2023-01-25T21:28:20.308Z,101444.06
2023-01-25T21:30:24.643Z,101445.75
2023-01-25T21:32:27.505Z,101459.81
2023-01-25T21:34:33.054Z,101458.16
2023-01-25T21:36:35.942Z,101453.88
2023-01-25T21:38:39.856Z,101446.38
2023-01-25T21:40:42.769Z,101453.63
2023-01-25T21:42:45.666Z,101443.34
2023-01-25T21:45:05.806Z,101445.94
2023-01-25T21:47:28.808Z,101438.22
2023-01-25T21:49:50.507Z,101442.59
2023-01-25T21:51:54.607Z,101452.16
2023-01-25T21:53:57.619Z,101452.22
2023-01-25T21:56:00.467Z,101451.34
2023-01-25T21:58:03.532Z,101450.47
2023-01-25T22:00:08.068Z,101453.03
2023-01-25T22:02:14.961Z,101457.25
2023-01-25T22:04:19.185Z,101465.16
2023-01-25T22:06:22.041Z,101468.66
2023-01-25T22:08:24.894Z,101462.63
2023-01-25T22:10:27.752Z,101462.28
2023-01-25T22:12:30.637Z,101464.16
2023-01-25T22:14:33.540Z,101469.66
2023-01-25T22:16:36.497Z,101467.19
2023-01-25T22:18:42.535Z,101467.31
2023-01-25T22:20:45.314Z,101467.44
2023-01-25T22:22:48.879Z,101460.56
2023-01-25T22:24:51.707Z,101461.41
2023-01-25T22:26:59.802Z,101457.88
2023-01-25T22:29:02.672Z,101463.97
2023-01-25T22:31:05.654Z,101459.63
2023-01-25T22:33:08.497Z,101459.47
2023-01-25T22:35:13.158Z,101463.84
2023-01-25T22:37:16.158Z,101452.03
2023-01-25T22:39:19.050Z,101449.97
2023-01-25T22:41:23.557Z,101446.72
2023-01-25T22:43:26.442Z,101441.34
2023-01-25T22:45:29.293Z,101437.00
2023-01-25T22:47:32.555Z,101446.44
2023-01-25T22:49:35.686Z,101442.22
2023-01-25T22:51:40.078Z,101444.84
2023-01-25T22:53:43.283Z,101446.59
2023-01-25T22:55:46.216Z,101444.84
2023-01-25T22:57:49.347Z,101433.56
2023-01-25T22:59:52.762Z,101433.69
2023-01-25T23:01:55.628Z,101434.75
2023-01-25T23:03:58.728Z,101425.25
2023-01-25T23:06:01.672Z,101425.41
2023-01-25T23:08:07.220Z,101420.41
2023-01-25T23:10:12.513Z,101417.88
2023-01-25T23:12:16.479Z,101417.97
2023-01-25T23:14:37.237Z,101411.78
2023-01-25T23:16:40.056Z,101405.72
2023-01-25T23:18:50.893Z,101411.06
2023-01-25T23:20:54.993Z,101402.47
2023-01-25T23:22:57.869Z,101399.03
2023-01-25T23:25:02.119Z,101400.84
2023-01-25T23:27:05.504Z,101396.44
2023-01-25T23:29:10.113Z,101394.78
2023-01-25T23:31:18.202Z,101400.00
2023-01-25T23:33:21.230Z,101389.63
2023-01-25T23:35:24.253Z,101396.63
2023-01-25T23:37:27.128Z,101384.47
2023-01-25T23:39:30.025Z,101384.47
2023-01-25T23:41:34.527Z,101382.75
2023-01-25T23:43:38.026Z,101382.75
2023-01-25T23:45:41.107Z,101374.97
2023-01-25T23:47:44.317Z,101374.91
2023-01-25T23:49:47.246Z,101375.81
2023-01-25T23:51:50.133Z,101365.91
2023-01-25T23:53:55.796Z,101366.97